Latest Coastal Weather Observations for Eucla

IDW60701

Issued at 6:55 pm WST Sunday 20 April 2014 (issued every 10 minutes, with the page automatically refreshed every 10 minutes)

About coastal observations | Map of coastal stations | Coastal observations for WA | Marine services | Other Formats
Station Details ID: 011003 Name: EUCLA Lat: -31.68 Lon: 128.90 Height: 93.1 m
Data from the previous 72 hours. | See also: Recent months at Eucla
Date/Time
WST
Temp

°C
Wind Pressure Rain
since 9am
mm
Weather Cloud Vis
km
Sea
Height
m
Swell
Dir
 
Speed
knots
Gust
knots
hPa Trend Height
m
Period
s
Dir
20/06:30pm 23.1 N 7 7 1010.2 - 0.0 - - - - - - -
20/06:00pm 23.9 N 6 7 1009.8 - 0.0 - - - - - - -
20/05:30pm 25.9 NNW 6 6 1010.0 - 0.0 - - - - - - -
20/05:00pm 27.3 NNW 5 6 1009.6 - 0.0 - - - - - - -
20/04:30pm 30.9 NW 6 10 1009.9 - 0.0 - - - - - - -
20/04:00pm 32.6 NW 8 12 1009.5 - 0.0 - - - - - - -
20/03:30pm 33.0 NNW 9 15 1009.7 - 0.0 - - - - - - -
20/03:00pm 34.1 NW 8 11 1009.4 - 0.0 Fine Partly cloudy 40 - - - -
20/02:30pm 33.5 NW 8 10 1009.8 - 0.0 - - - - - - -
20/02:00pm 34.5 W 10 16 1009.5 - 0.0 - - - - - - -
20/01:30pm 33.8 NNW 13 18 1010.1 - 0.0 - - - - - - -
20/01:00pm 33.9 NW 13 22 1009.9 - 0.0 - - - - - - -
20/12:30pm 33.5 NW 13 19 1010.5 - 0.0 - - - - - - -
20/12:00pm 33.9 NW 13 20 1010.7 - 0.0 - - - - - - -
20/11:30am 33.4 NNW 15 21 1011.5 - 0.0 - - - - - - -
20/11:00am 32.5 NNW 14 19 1011.9 - 0.0 - - - - - - -
20/10:30am 31.2 NNW 14 21 1012.5 - 0.0 - - - - - - -
20/10:00am 30.4 NNW 15 22 1012.7 - 0.0 - - - - - - -
20/09:30am 29.1 NNW 13 19 1013.1 - 0.0 - - - - - - -
20/09:00am 27.7 N 13 20 1013.0 - 0.0 Fine Mostly clear 40 - - - -
20/08:30am 26.2 N 12 19 1013.8 - 0.0 - - - - - - -
20/08:00am 24.6 N 10 15 1013.9 - 0.0 - - - - - - -
20/07:30am 22.5 N 10 15 1014.2 - 0.0 - - - - - - -
20/07:00am 20.5 N 10 14 1014.0 - 0.0 - - - - - - -
20/06:30am 19.1 N 11 16 1014.2 - 0.0 - - - - - - -
20/06:00am 18.4 N 11 15 1013.8 - 0.0 - - - - - - -
20/05:30am 18.7 N 12 17 1013.8 - 0.0 - - - - - - -
20/05:00am 18.1 N 12 16 1013.5 - 0.0 - - - - - - -
20/04:30am 16.7 N 10 14 1013.7 - 0.0 - - - - - - -
20/04:00am 17.0 N 11 15 1013.4 - 0.0 - - - - - - -
20/03:30am 16.6 N 11 15 1013.6 - 0.0 - - - - - - -
20/03:00am 16.6 N 11 15 1013.5 - 0.0 - - - - - - -
20/02:30am 16.7 N 11 15 1013.7 - 0.0 - - - - - - -
20/02:00am 17.2 N 10 14 1013.8 - 0.0 - - - - - - -
20/01:30am 16.1 N 10 13 1014.1 - 0.0 - - - - - - -
20/01:00am 16.2 N 9 11 1014.2 - 0.0 - - - - - - -
20/12:30am 16.7 NNE 9 12 1014.6 - 0.0 - - - - - - -
20/12:00am 16.9 NNE 8 12 1014.4 - 0.0 - - - - - - -
 
Date/Time
WST
Temp

°C
Wind Pressure Rain
since 9am
mm
Weather Cloud Vis
km
Sea
Height
m
Swell
Dir
 
Speed
knots
Gust
knots
hPa Trend Height
m
Period
s
Dir
19/11:30pm 17.3 NNE 10 14 1014.6 - 0.0 - - - - - - -
19/11:00pm 17.9 NNE 9 13 1014.4 - 0.0 - - - - - - -
19/10:30pm 18.4 NNE 9 12 1014.7 - 0.0 - - - - - - -
19/10:00pm 19.0 NNE 9 13 1014.7 - 0.0 - - - - - - -
19/09:30pm 19.0 NNE 9 13 1015.2 - 0.0 - - - - - - -
19/09:00pm 19.1 NE 9 14 1015.0 - 0.0 - - - - - - -
19/08:30pm 19.4 NE 9 12 1015.3 - 0.0 - - - - - - -
19/08:00pm 19.3 NNE 9 13 1015.1 - 0.0 - - - - - - -
19/07:30pm 19.5 NE 8 11 1015.2 - 0.0 - - - - - - -
19/07:00pm 19.5 NE 9 13 1015.0 - 0.0 - - - - - - -
19/06:30pm 19.5 NE 9 13 1015.1 - 0.0 - - - - - - -
19/06:00pm 19.7 ENE 9 13 1015.0 - 0.0 - - - - - - -
19/05:30pm 19.3 E 8 12 1015.2 - 0.0 - - - - - - -
19/05:00pm 19.3 E 8 12 1014.9 - 0.0 - - - - - - -
19/04:30pm 20.1 E 7 11 1015.0 - 0.0 - - - - - - -
19/04:00pm 21.0 E 8 13 1015.0 - 0.0 - - - - - - -
19/03:30pm 22.4 E 8 11 1015.2 - 0.0 - - - - - - -
19/03:00pm 22.3 E 8 11 1015.1 - 0.0 Fine Partly cloudy 20 - - - -
19/02:30pm 21.3 E 8 13 1015.5 - 0.0 - - - - - - -
19/02:00pm 22.0 ESE 8 13 1015.6 - 0.0 - - - - - - -
19/01:30pm 22.2 ESE 9 14 1016.1 - 0.0 - - - - - - -
19/01:00pm 22.3 ESE 9 14 1016.2 - 0.0 - - - - - - -
19/12:30pm 22.3 ESE 9 14 1016.8 - 0.0 - - - - - - -
19/12:00pm 22.1 ESE 10 14 1017.1 - 0.0 - - - - - - -
19/11:30am 22.2 ESE 8 12 1018.0 - 0.0 - - - - - - -
19/11:00am 22.3 E 7 10 1018.5 - 0.0 - - - - - - -
19/10:30am 22.3 NE 7 10 1019.4 - 0.0 - - - - - - -
19/10:00am 23.8 ENE 7 13 1019.6 - 0.0 - - - - - - -
19/09:30am 22.7 NE 9 14 1020.2 - 0.0 - - - - - - -
19/09:00am 21.4 NE 9 15 1020.2 - 0.0 Fine Partly cloudy 25 - - - -
19/08:30am 20.1 ENE 8 13 1020.8 - 0.0 - - - - - - -
19/08:00am 18.4 ENE 8 13 1021.0 - 0.0 - - - - - - -
19/07:30am 17.6 NE 7 12 1021.3 - 0.0 - - - - - - -
19/07:00am 16.0 NNE 7 12 1021.0 - 0.0 - - - - - - -
19/06:30am 15.2 NNE 10 15 1020.9 - 0.0 - - - - - - -
19/06:00am 14.5 NNE 9 14 1020.6 - 0.0 - - - - - - -
19/05:30am 14.4 NNE 7 10 1020.7 - 0.0 - - - - - - -
19/05:00am 14.8 NNE 6 8 1020.6 - 0.0 - - - - - - -
19/04:30am 15.1 NE 6 8 1020.9 - 0.0 - - - - - - -
19/04:00am 15.5 NNE 6 8 1020.7 - 0.0 - - - - - - -
19/03:30am 15.8 NE 6 8 1020.9 - 0.0 - - - - - - -
19/03:00am 15.7 NE 6 7 1020.8 - 0.0 - - - - - - -
19/02:30am 15.6 NE 6 7 1020.8 - 0.0 - - - - - - -
19/02:00am 15.8 NE 6 8 1020.6 - 0.0 - - - - - - -
19/01:30am 16.4 ENE 6 9 1021.0 - 0.0 - - - - - - -
19/01:00am 16.2 ENE 5 7 1020.9 - 0.0 - - - - - - -
19/12:30am 16.7 ENE 5 7 1021.4 - 0.0 - - - - - - -
19/12:00am 16.8 ENE 5 8 1021.2 - 0.0 - - - - - - -
 
Date/Time
WST
Temp

°C
Wind Pressure Rain
since 9am
mm
Weather Cloud Vis
km
Sea
Height
m
Swell
Dir
 
Speed
knots
Gust
knots
hPa Trend Height
m
Period
s
Dir
18/11:30pm 17.0 E 5 9 1021.7 - 0.0 - - - - - - -
18/11:00pm 17.3 E 5 7 1021.6 - 0.0 - - - - - - -
18/10:30pm 17.9 E 7 13 1022.0 - 0.0 - - - - - - -
18/10:00pm 17.8 E 7 9 1022.1 - 0.0 - - - - - - -
18/09:30pm 17.9 ESE 6 10 1022.5 - 0.0 - - - - - - -
18/09:00pm 18.0 ESE 7 11 1022.4 - 0.0 - - - - - - -
18/08:30pm 18.3 ESE 7 9 1022.7 - 0.0 - - - - - - -
18/08:00pm 18.2 ESE 7 10 1022.5 - 0.0 - - - - - - -
18/07:30pm 18.3 ESE 7 9 1022.7 - 0.0 - - - - - - -
18/07:00pm 18.3 SE 7 9 1022.4 - 0.0 - - - - - - -
18/06:30pm 18.3 SE 7 10 1022.5 - 0.0 - - - - - - -
18/06:00pm 18.5 SE 7 10 1022.3 - 0.0 - - - - - - -
18/05:30pm 18.8 SE 7 11 1022.2 - 0.0 - - - - - - -
18/05:00pm 19.0 SE 7 11 1022.0 - 0.0 - - - - - - -
18/04:30pm 19.2 SE 7 11 1022.0 - 0.0 - - - - - - -
18/04:00pm 19.6 SE 7 10 1021.8 - 0.0 - - - - - - -
18/03:30pm 20.0 SE 8 12 1022.0 - 0.0 - - - - - - -
18/03:00pm 20.6 SSE 9 14 1021.8 - 0.0 Fine Partly cloudy 25 - - - -
18/02:30pm 20.6 SE 9 13 1022.0 - 0.0 - - - - - - -
18/02:00pm 21.4 SSE 9 13 1021.9 - 0.0 - - - - - - -
18/01:30pm 21.9 SSE 8 13 1022.1 - 0.0 - - - - - - -
18/01:00pm 22.0 SSE 9 13 1021.8 - 0.0 - - - - - - -
18/12:30pm 21.7 SSE 9 13 1022.3 - 0.0 - - - - - - -
18/12:00pm 21.8 SSE 8 12 1022.4 - 0.0 - - - - - - -
18/11:30am 21.3 SSE 9 13 1023.0 - 0.0 - - - - - - -
18/11:00am 21.3 SE 8 13 1023.2 - 0.0 - - - - - - -
18/10:30am 21.1 SE 8 15 1023.7 - 0.0 - - - - - - -
18/10:00am 21.1 SE 8 12 1023.7 - 0.0 - - - - - - -
18/09:30am 20.7 SE 8 13 1023.9 - 0.0 - - - - - - -
18/09:00am 20.7 SE 7 10 1023.8 - 0.0 Fine Partly cloudy 25 - - - -
18/08:30am 20.3 SSE 8 11 1024.0 - 0.0 - - - - - - -
18/08:00am 19.9 SE 8 11 1023.8 - 0.0 - - - - - - -
18/07:30am 19.6 SE 8 11 1023.7 - 0.0 - - - - - - -
18/07:00am 20.2 SE 7 12 1023.2 - 0.0 - - - - - - -
18/06:30am 18.7 SE 7 10 1023.2 - 0.0 - - - - - - -
18/06:00am 18.4 SE 8 13 1022.7 - 0.0 - - - - - - -
18/05:30am 18.4 SE 8 12 1022.6 - 0.0 - - - - - - -
18/05:00am 18.6 SE 9 15 1022.2 - 0.0 - - - - - - -
18/04:30am 18.6 SSE 10 17 1022.3 - 0.0 - - - - - - -
18/04:00am 18.7 SSE 9 15 1021.9 - 0.0 - - - - - - -
18/03:30am 18.4 SSE 10 14 1021.9 - 0.0 - - - - - - -
18/03:00am 18.6 SSE 10 16 1021.4 - 0.0 - - - - - - -
18/02:30am 18.6 SSE 9 14 1021.4 - 0.0 - - - - - - -
18/02:00am 18.9 S 8 13 1021.2 - 0.0 - - - - - - -
18/01:30am 18.9 S 9 16 1021.3 - 0.0 - - - - - - -
18/01:00am 18.5 S 8 12 1021.1 - 0.0 - - - - - - -
18/12:30am 17.8 SSW 7 8 1021.3 - 0.0 - - - - - - -
18/12:00am 19.0 SE 6 8 1020.8 - 0.0 - - - - - - -
 
Date/Time
WST
Temp

°C
Wind Pressure Rain
since 9am
mm
Weather Cloud Vis
km
Sea
Height
m
Swell
Dir
 
Speed
knots
Gust
knots
hPa Trend Height
m
Period
s
Dir
17/11:30pm 18.3 SW 7 9 1021.0 - 0.0 - - - - - - -
17/11:00pm 18.3 SW 7 9 1020.4 - 0.0 - - - - - - -
17/10:30pm 17.9 NE 3 5 1020.2 - 0.0 - - - - - - -
17/10:00pm 18.0 N 8 11 1019.9 - 0.0 - - - - - - -
17/09:30pm 18.6 N 9 11 1019.7 - 0.0 - - - - - - -
17/09:00pm 18.8 N 8 10 1019.5 - 0.0 - - - - - - -
17/08:30pm 19.5 N 8 9 1019.8 - 0.0 - - - - - - -
17/08:00pm 20.1 NNE 7 10 1019.3 - 0.0 - - - - - - -
17/07:30pm 20.6 NNE 7 10 1019.5 - 0.0 - - - - - - -
17/07:00pm 21.3 NNE 7 9 1019.2 - 0.0 - - - - - - -

Other Formats:

Comma delimited format used in spreadsheet applications
http://www.bom.gov.au/fwo/IDW60701/IDW60701.94647.axf

JavaScript Object Notation format (JSON) in row-major order
http://www.bom.gov.au/fwo/IDW60701/IDW60701.94647.json